createdAt,value
2017-06-01T00:02:24.021Z,19.70
2017-06-01T00:04:52.878Z,19.70
2017-06-01T00:07:21.766Z,19.60
2017-06-01T00:09:50.603Z,19.60
2017-06-01T00:12:19.472Z,19.60
2017-06-01T00:14:48.350Z,19.70
2017-06-01T00:17:17.227Z,19.60
2017-06-01T00:19:46.085Z,19.70
2017-06-01T00:22:14.318Z,19.60
2017-06-01T00:24:43.171Z,19.80
2017-06-01T00:27:12.016Z,19.80
2017-06-01T00:29:40.916Z,19.80
2017-06-01T00:32:09.781Z,19.80
2017-06-01T00:34:38.636Z,19.80
2017-06-01T00:37:07.554Z,19.80
2017-06-01T00:39:36.405Z,19.70
2017-06-01T00:42:04.487Z,19.70
2017-06-01T00:44:33.379Z,19.60
2017-06-01T00:47:02.219Z,19.70
2017-06-01T00:49:31.118Z,19.60
2017-06-01T00:51:59.988Z,19.70
2017-06-01T00:54:28.844Z,19.60
2017-06-01T00:56:57.868Z,19.60
2017-06-01T00:59:25.966Z,19.60
2017-06-01T01:01:54.806Z,19.50
2017-06-01T01:04:23.693Z,19.50
2017-06-01T01:06:52.545Z,19.40
2017-06-01T01:09:21.401Z,19.50
2017-06-01T01:11:50.301Z,19.50
2017-06-01T01:14:19.142Z,19.40
2017-06-01T01:16:48.013Z,19.30
2017-06-01T01:19:17.009Z,19.30
2017-06-01T01:21:45.096Z,19.30
2017-06-01T01:24:13.954Z,19.20
2017-06-01T01:26:42.867Z,19.20
2017-06-01T01:29:10.944Z,19.20
2017-06-01T01:31:39.812Z,19.20
2017-06-01T01:34:08.701Z,19.10
2017-06-01T01:36:37.552Z,19.10
2017-06-01T01:39:13.567Z,19.00
2017-06-01T01:41:43.694Z,19.00
2017-06-01T01:44:11.778Z,18.90
2017-06-01T01:46:43.122Z,18.90
2017-06-01T01:49:11.981Z,18.90
2017-06-01T01:51:40.073Z,18.90
2017-06-01T01:54:08.957Z,18.90
2017-06-01T01:56:37.812Z,18.90
2017-06-01T01:59:06.705Z,18.80
2017-06-01T02:01:35.560Z,18.80
2017-06-01T02:04:04.418Z,18.70
2017-06-01T02:06:33.413Z,18.60
2017-06-01T02:09:02.281Z,18.70
2017-06-01T02:11:30.389Z,18.70
2017-06-01T02:13:59.277Z,18.60
2017-06-01T02:16:28.173Z,18.50
2017-06-01T02:18:57.176Z,18.50
2017-06-01T02:21:26.038Z,18.50
2017-06-01T02:23:54.892Z,18.50
2017-06-01T02:26:23.777Z,18.50
2017-06-01T02:28:52.650Z,18.50
2017-06-01T02:31:21.541Z,18.40
2017-06-01T02:33:50.447Z,18.50
2017-06-01T02:36:19.326Z,18.50
2017-06-01T02:38:48.348Z,18.40
2017-06-01T02:41:17.237Z,18.40
2017-06-01T02:43:46.090Z,18.40
2017-06-01T02:46:15.045Z,18.30
2017-06-01T02:48:43.905Z,18.30
2017-06-01T02:51:12.766Z,18.30
2017-06-01T02:53:41.661Z,18.30
2017-06-01T02:56:10.535Z,18.30
2017-06-01T02:58:39.388Z,18.20
2017-06-01T03:01:08.277Z,18.20
2017-06-01T03:03:37.133Z,18.10
2017-06-01T03:06:06.134Z,18.10
2017-06-01T03:08:35.002Z,18.00
2017-06-01T03:11:03.864Z,18.00
2017-06-01T03:13:32.773Z,17.90
2017-06-01T03:16:01.658Z,17.90
2017-06-01T03:18:30.530Z,17.90
2017-06-01T03:20:59.427Z,17.90
2017-06-01T03:23:28.285Z,17.90
2017-06-01T03:25:57.148Z,17.80
2017-06-01T03:28:29.642Z,17.80
2017-06-01T03:30:58.496Z,17.80
2017-06-01T03:33:28.652Z,17.70
2017-06-01T03:35:57.516Z,17.70
2017-06-01T03:38:26.377Z,17.70
2017-06-01T03:40:56.460Z,17.70
2017-06-01T03:43:25.316Z,17.70
2017-06-01T03:45:54.337Z,17.70
2017-06-01T03:48:23.203Z,17.70
2017-06-01T03:50:52.071Z,17.70
2017-06-01T03:53:20.965Z,17.70
2017-06-01T03:55:49.056Z,17.60
2017-06-01T03:58:17.913Z,17.60
2017-06-01T04:00:46.806Z,17.60
2017-06-01T04:03:15.672Z,17.60
2017-06-01T04:05:44.533Z,17.70
2017-06-01T04:08:13.554Z,17.70
2017-06-01T04:10:42.416Z,17.70
2017-06-01T04:13:10.500Z,17.70
2017-06-01T04:15:39.398Z,17.70
2017-06-01T04:18:08.256Z,17.70
2017-06-01T04:20:37.121Z,17.70
2017-06-01T04:23:06.014Z,17.70
2017-06-01T04:25:34.886Z,17.80
2017-06-01T04:28:05.582Z,17.80
2017-06-01T04:30:34.449Z,17.80
2017-06-01T04:33:03.313Z,17.80
2017-06-01T04:35:32.221Z,17.90
2017-06-01T04:38:01.078Z,18.00
2017-06-01T04:40:29.945Z,18.00
2017-06-01T04:42:58.962Z,18.00
2017-06-01T04:45:27.833Z,18.00
2017-06-01T04:47:56.724Z,18.10
2017-06-01T04:50:25.589Z,18.20
2017-06-01T04:52:54.437Z,18.30
2017-06-01T04:55:23.325Z,18.30
2017-06-01T04:57:52.198Z,18.40
2017-06-01T05:00:22.843Z,18.40
2017-06-01T05:02:51.689Z,18.40
2017-06-01T05:05:20.565Z,18.40
2017-06-01T05:07:51.781Z,18.50
2017-06-01T05:10:20.635Z,18.50
2017-06-01T05:12:49.507Z,18.60
2017-06-01T05:15:18.405Z,18.70
2017-06-01T05:17:48.961Z,18.80
2017-06-01T05:20:17.825Z,18.90
2017-06-01T05:22:48.395Z,18.90
2017-06-01T05:25:17.300Z,19.00
2017-06-01T05:27:46.177Z,19.00
2017-06-01T05:30:15.057Z,19.10
2017-06-01T05:32:43.957Z,19.10
2017-06-01T05:35:12.818Z,19.20
2017-06-01T05:37:41.682Z,19.20
2017-06-01T05:40:10.674Z,19.30
2017-06-01T05:42:39.533Z,19.30
2017-06-01T05:45:08.393Z,19.40
2017-06-01T05:47:37.326Z,19.50
2017-06-01T05:50:06.174Z,19.50
2017-06-01T05:52:35.024Z,19.50
2017-06-01T05:55:03.926Z,19.50
2017-06-01T05:57:32.792Z,19.60
2017-06-01T06:00:01.650Z,19.60
2017-06-01T06:02:30.639Z,19.70
2017-06-01T06:04:59.503Z,19.80
2017-06-01T06:07:28.395Z,19.90
2017-06-01T06:09:57.252Z,19.90
2017-06-01T06:12:26.113Z,20.00
2017-06-01T06:14:55.117Z,20.10
2017-06-01T06:17:24.008Z,20.20
2017-06-01T06:19:52.864Z,20.20
2017-06-01T06:22:21.757Z,20.30
2017-06-01T06:24:50.628Z,20.40
2017-06-01T06:27:19.517Z,20.40
2017-06-01T06:29:48.371Z,20.50
2017-06-01T06:32:17.220Z,20.60
2017-06-01T06:34:46.121Z,20.70
2017-06-01T06:37:14.988Z,20.70
2017-06-01T06:39:43.838Z,20.70
2017-06-01T06:42:19.297Z,20.70
2017-06-01T06:44:47.389Z,20.70
2017-06-01T06:47:16.251Z,20.70
2017-06-01T06:49:45.257Z,20.70
2017-06-01T06:52:14.132Z,20.70
2017-06-01T06:54:42.995Z,20.80
2017-06-01T06:57:11.882Z,20.90
2017-06-01T06:59:40.749Z,20.90
2017-06-01T07:02:09.593Z,21.00
2017-06-01T07:04:38.507Z,21.20
2017-06-01T07:07:07.383Z,21.30
2017-06-01T07:09:36.304Z,21.30
2017-06-01T07:12:05.152Z,21.30
2017-06-01T07:14:34.016Z,21.20
2017-06-01T07:17:03.641Z,21.10
2017-06-01T07:19:32.506Z,21.20
2017-06-01T07:22:01.369Z,21.30
2017-06-01T07:24:30.381Z,21.20
2017-06-01T07:26:59.252Z,21.40
2017-06-01T07:29:28.118Z,21.40
2017-06-01T07:31:57.040Z,21.60
2017-06-01T07:34:25.900Z,21.70
2017-06-01T07:36:54.769Z,21.70
2017-06-01T07:39:23.749Z,21.70
2017-06-01T07:41:52.602Z,21.90
2017-06-01T07:44:21.461Z,21.90
2017-06-01T07:46:49.597Z,21.90
2017-06-01T07:49:18.466Z,22.10
2017-06-01T07:51:48.533Z,22.20
2017-06-01T07:54:18.225Z,22.30
2017-06-01T07:56:47.404Z,22.30
2017-06-01T07:59:16.265Z,22.40
2017-06-01T08:01:45.165Z,22.50
2017-06-01T08:04:13.257Z,22.50
2017-06-01T08:06:42.113Z,22.90
2017-06-01T08:09:11.834Z,23.10
2017-06-01T08:11:40.693Z,23.20
2017-06-01T08:14:10.870Z,23.30
2017-06-01T08:16:39.737Z,23.40
2017-06-01T08:19:08.617Z,23.40
2017-06-01T08:21:37.522Z,23.50
2017-06-01T08:24:06.391Z,23.60
2017-06-01T08:26:35.253Z,23.50
2017-06-01T08:29:11.397Z,23.60
2017-06-01T08:31:40.252Z,23.60
2017-06-01T08:34:09.097Z,23.70
2017-06-01T08:36:37.998Z,23.70
2017-06-01T08:39:06.853Z,23.70
2017-06-01T08:41:35.691Z,23.70
2017-06-01T08:44:04.584Z,23.70
2017-06-01T08:46:33.431Z,23.70
2017-06-01T08:49:02.273Z,23.70
2017-06-01T08:51:31.194Z,23.80
2017-06-01T08:54:00.053Z,23.80
2017-06-01T08:56:28.917Z,23.80
2017-06-01T08:58:58.638Z,23.90
2017-06-01T09:01:27.488Z,23.90
2017-06-01T09:03:56.340Z,24.00
2017-06-01T09:06:25.290Z,24.20
2017-06-01T09:08:54.144Z,24.30
2017-06-01T09:11:23.004Z,24.20
2017-06-01T09:13:51.909Z,24.30
2017-06-01T09:16:21.556Z,24.40
2017-06-01T09:18:50.414Z,24.40
2017-06-01T09:21:18.535Z,24.40
2017-06-01T09:23:47.553Z,24.60
2017-06-01T09:26:16.400Z,24.70
2017-06-01T09:28:44.482Z,24.60
2017-06-01T09:31:13.365Z,24.90
2017-06-01T09:33:42.221Z,25.00
2017-06-01T09:36:11.069Z,25.10
2017-06-01T09:38:43.625Z,25.20
2017-06-01T09:41:12.465Z,25.40
2017-06-01T09:43:41.333Z,25.50
2017-06-01T09:46:10.177Z,25.70
2017-06-01T09:48:39.061Z,25.80
2017-06-01T09:51:07.905Z,25.90
2017-06-01T09:53:36.743Z,26.00
2017-06-01T09:56:05.660Z,26.00
2017-06-01T09:58:34.493Z,26.00
2017-06-01T10:01:03.359Z,26.00
2017-06-01T10:03:32.240Z,26.00
2017-06-01T10:06:01.076Z,26.00
2017-06-01T10:08:29.917Z,26.10
2017-06-01T10:10:58.797Z,26.20
2017-06-01T10:13:27.637Z,26.30
2017-06-01T10:15:56.545Z,26.30
2017-06-01T10:18:26.744Z,26.30
2017-06-01T10:20:55.593Z,26.30
2017-06-01T10:23:25.690Z,26.20
2017-06-01T10:25:54.537Z,26.30
2017-06-01T10:28:23.389Z,26.20
2017-06-01T10:30:52.277Z,26.20
2017-06-01T10:33:21.129Z,26.10
2017-06-01T10:35:53.633Z,26.20
2017-06-01T10:38:22.490Z,26.20
2017-06-01T10:40:51.328Z,26.30
2017-06-01T10:43:20.202Z,26.30
2017-06-01T10:45:48.288Z,26.30
2017-06-01T10:48:17.174Z,26.50
2017-06-01T10:50:46.029Z,26.50
2017-06-01T10:53:14.890Z,26.50
2017-06-01T10:55:43.890Z,26.40
2017-06-01T10:58:12.748Z,26.40
2017-06-01T11:00:41.601Z,26.40
2017-06-01T11:03:10.489Z,26.30
2017-06-01T11:05:39.342Z,26.30
2017-06-01T11:08:08.221Z,26.20
2017-06-01T11:10:37.116Z,26.40
2017-06-01T11:13:05.974Z,26.50
2017-06-01T11:15:34.815Z,26.80
2017-06-01T11:18:05.863Z,27.00
2017-06-01T11:20:34.718Z,27.10
2017-06-01T11:23:03.589Z,27.30
2017-06-01T11:25:32.484Z,27.50
2017-06-01T11:28:01.325Z,27.60
2017-06-01T11:30:37.650Z,27.80
2017-06-01T11:33:06.617Z,27.80
2017-06-01T11:35:35.492Z,27.90
2017-06-01T11:38:04.389Z,27.80
2017-06-01T11:40:33.248Z,27.60
2017-06-01T11:43:02.148Z,27.50
2017-06-01T11:45:31.037Z,27.50
2017-06-01T11:47:59.883Z,27.50
2017-06-01T11:50:28.752Z,27.40
2017-06-01T11:52:57.665Z,27.30
2017-06-01T11:55:26.520Z,27.00
2017-06-01T11:57:55.414Z,26.90
2017-06-01T12:00:24.266Z,26.90
2017-06-01T12:02:53.114Z,27.00
2017-06-01T12:05:22.001Z,26.90
2017-06-01T12:07:50.864Z,26.90
2017-06-01T12:10:19.730Z,26.90
2017-06-01T12:12:50.338Z,26.90
2017-06-01T12:15:20.926Z,27.00
2017-06-01T12:17:52.689Z,27.20
2017-06-01T12:20:21.550Z,27.30
2017-06-01T12:22:49.670Z,27.30
2017-06-01T12:25:18.514Z,27.70
2017-06-01T12:27:47.366Z,27.90
2017-06-01T12:30:16.285Z,28.30
2017-06-01T12:32:45.133Z,28.40
2017-06-01T12:35:13.982Z,28.70
2017-06-01T12:37:42.874Z,28.90
2017-06-01T12:40:11.718Z,29.00
2017-06-01T12:42:40.576Z,29.10
2017-06-01T12:45:16.832Z,29.10
2017-06-01T12:47:45.773Z,29.10
2017-06-01T12:50:14.665Z,29.10
2017-06-01T12:52:43.518Z,29.30
2017-06-01T12:55:12.385Z,29.50
2017-06-01T12:57:41.249Z,29.60
2017-06-01T13:00:10.119Z,29.60
2017-06-01T13:02:46.909Z,29.70
2017-06-01T13:05:23.558Z,29.60
2017-06-01T13:07:52.525Z,29.80
2017-06-01T13:10:21.390Z,30.00
2017-06-01T13:12:50.234Z,30.20
2017-06-01T13:15:20.357Z,30.30
2017-06-01T13:18:04.571Z,30.40
2017-06-01T13:20:33.478Z,30.40
2017-06-01T13:23:02.333Z,30.30
2017-06-01T13:25:31.181Z,30.40
2017-06-01T13:28:00.085Z,30.50
2017-06-01T13:30:28.982Z,30.50
2017-06-01T13:32:57.842Z,30.70
2017-06-01T13:35:26.866Z,30.40
2017-06-01T13:37:55.729Z,30.40
2017-06-01T13:40:24.606Z,30.20
2017-06-01T13:42:53.509Z,30.20
2017-06-01T13:45:22.355Z,30.10
2017-06-01T13:47:51.211Z,30.20
2017-06-01T13:50:20.268Z,30.10
2017-06-01T13:52:49.121Z,30.10
2017-06-01T13:55:25.216Z,30.30
2017-06-01T13:57:54.202Z,30.50
2017-06-01T14:00:23.055Z,30.30
2017-06-01T14:02:51.983Z,30.40
2017-06-01T14:05:20.832Z,30.60
2017-06-01T14:07:49.721Z,30.50
2017-06-01T14:10:18.602Z,30.30
2017-06-01T14:12:47.483Z,30.40
2017-06-01T14:15:23.736Z,30.40
2017-06-01T14:17:55.999Z,30.60
2017-06-01T14:20:26.196Z,30.70
2017-06-01T14:22:55.061Z,30.90
2017-06-01T14:25:23.939Z,30.80
2017-06-01T14:27:52.799Z,30.70
2017-06-01T14:30:21.721Z,30.70
2017-06-01T14:32:50.582Z,30.70
2017-06-01T14:35:19.440Z,30.50
2017-06-01T14:37:48.469Z,30.70
2017-06-01T14:40:17.327Z,30.80
2017-06-01T14:42:46.182Z,30.80
2017-06-01T14:45:15.190Z,30.90
2017-06-01T14:47:44.050Z,31.10
2017-06-01T14:50:12.913Z,31.20
2017-06-01T14:52:41.795Z,31.30
2017-06-01T14:55:10.684Z,31.50
2017-06-01T14:57:39.582Z,31.50
2017-06-01T15:00:08.503Z,31.30
2017-06-01T15:02:37.354Z,31.20
2017-06-01T15:05:06.207Z,31.30
2017-06-01T15:07:36.972Z,31.20
2017-06-01T15:10:05.833Z,31.20
2017-06-01T15:12:34.694Z,31.00
2017-06-01T15:15:03.598Z,31.10
2017-06-01T15:17:32.478Z,31.10
2017-06-01T15:20:01.413Z,31.10
2017-06-01T15:22:30.269Z,31.00
2017-06-01T15:24:59.139Z,31.00
2017-06-01T15:27:28.714Z,30.90
2017-06-01T15:29:57.595Z,30.80
2017-06-01T15:32:26.450Z,30.70
2017-06-01T15:34:55.349Z,30.80
2017-06-01T15:37:24.244Z,30.80
2017-06-01T15:39:53.116Z,30.70
2017-06-01T15:42:22.368Z,30.70
2017-06-01T15:44:51.231Z,30.70
2017-06-01T15:47:20.095Z,30.70
2017-06-01T15:49:49.922Z,30.70
2017-06-01T15:52:18.772Z,30.50
2017-06-01T15:54:47.643Z,30.40
2017-06-01T15:57:16.601Z,30.50
2017-06-01T15:59:45.407Z,30.50
2017-06-01T16:02:14.321Z,30.40
2017-06-01T16:04:43.194Z,30.50
2017-06-01T16:07:12.058Z,30.50
2017-06-01T16:09:41.060Z,30.30
2017-06-01T16:12:09.936Z,30.30
2017-06-01T16:14:38.846Z,30.20
2017-06-01T16:17:07.023Z,30.20
2017-06-01T16:19:35.895Z,29.90
2017-06-01T16:22:04.811Z,29.80
2017-06-01T16:24:33.691Z,29.80
2017-06-01T16:27:02.554Z,29.70
2017-06-01T16:29:38.482Z,29.80
2017-06-01T16:32:14.905Z,29.90
2017-06-01T16:34:51.818Z,29.90
2017-06-01T16:37:20.773Z,29.90
2017-06-01T16:39:49.658Z,29.80
2017-06-01T16:42:18.590Z,29.70
2017-06-01T16:44:47.461Z,29.60
2017-06-01T16:47:16.347Z,29.60
2017-06-01T16:49:52.494Z,29.60
2017-06-01T16:52:21.465Z,29.60
2017-06-01T16:54:50.350Z,29.60
2017-06-01T16:57:19.233Z,29.60
2017-06-01T16:59:48.173Z,29.60
2017-06-01T17:02:17.078Z,29.50
2017-06-01T17:04:46.016Z,29.50
2017-06-01T17:07:14.962Z,29.40
2017-06-01T17:09:43.835Z,29.20
2017-06-01T17:12:12.714Z,29.00
2017-06-01T17:14:41.590Z,29.00
2017-06-01T17:17:26.108Z,28.90
2017-06-01T17:20:02.962Z,29.00
2017-06-01T17:22:39.573Z,29.00
2017-06-01T17:25:08.550Z,28.80
2017-06-01T17:27:37.409Z,28.60
2017-06-01T17:30:06.289Z,28.50
2017-06-01T17:32:35.171Z,28.40
2017-06-01T17:35:04.019Z,28.40
2017-06-01T17:37:32.954Z,28.40
2017-06-01T17:40:01.885Z,28.30
2017-06-01T17:42:30.739Z,28.20
2017-06-01T17:44:59.628Z,28.20
2017-06-01T17:47:28.538Z,28.20
2017-06-01T17:49:57.415Z,28.10
2017-06-01T17:52:26.298Z,28.00
2017-06-01T17:54:55.162Z,27.80
2017-06-01T17:57:27.613Z,27.80
2017-06-01T17:59:56.498Z,27.70
2017-06-01T18:02:25.380Z,27.70
2017-06-01T18:04:55.540Z,27.60
2017-06-01T18:07:24.406Z,27.40
2017-06-01T18:09:54.546Z,27.30
2017-06-01T18:12:23.446Z,27.20
2017-06-01T18:14:52.318Z,27.20
2017-06-01T18:17:28.750Z,27.10
2017-06-01T18:20:05.376Z,27.00
2017-06-01T18:22:33.594Z,26.90
2017-06-01T18:25:02.455Z,26.90
2017-06-01T18:27:31.323Z,26.70
2017-06-01T18:30:00.224Z,26.70
2017-06-01T18:32:29.090Z,26.60
2017-06-01T18:35:05.964Z,26.50
2017-06-01T18:37:42.163Z,26.30
2017-06-01T18:40:11.153Z,26.30
2017-06-01T18:42:40.037Z,26.00
2017-06-01T18:45:08.916Z,26.00
2017-06-01T18:47:37.828Z,26.00
2017-06-01T18:50:06.702Z,26.00
2017-06-01T18:52:35.570Z,25.90
2017-06-01T18:55:11.595Z,25.80
2017-06-01T18:57:47.580Z,25.70
2017-06-01T19:00:16.550Z,25.70
2017-06-01T19:02:45.409Z,25.70
2017-06-01T19:05:14.268Z,25.60
2017-06-01T19:07:43.161Z,25.60
2017-06-01T19:10:12.048Z,25.70
2017-06-01T19:12:40.930Z,25.60
2017-06-01T19:15:16.989Z,25.50
2017-06-01T19:17:53.523Z,25.40
2017-06-01T19:20:22.535Z,25.40
2017-06-01T19:22:51.388Z,25.40
2017-06-01T19:25:20.254Z,25.40
2017-06-01T19:27:49.125Z,25.40
2017-06-01T19:30:26.032Z,25.30
2017-06-01T19:33:02.693Z,25.30
2017-06-01T19:35:39.202Z,25.20
2017-06-01T19:38:08.169Z,25.20
2017-06-01T19:40:37.055Z,25.20
2017-06-01T19:43:05.948Z,25.20
2017-06-01T19:45:34.869Z,25.20
2017-06-01T19:48:03.740Z,25.20
2017-06-01T19:50:32.597Z,25.20
2017-06-01T19:53:01.495Z,25.20
2017-06-01T19:55:30.358Z,25.20
2017-06-01T19:57:59.256Z,25.10
2017-06-01T20:00:28.149Z,25.00
2017-06-01T20:02:56.981Z,25.10
2017-06-01T20:05:25.855Z,25.00
2017-06-01T20:07:55.785Z,25.00
2017-06-01T20:10:24.630Z,25.00
2017-06-01T20:12:53.517Z,25.00
2017-06-01T20:15:22.381Z,24.90
2017-06-01T20:17:51.256Z,24.90
2017-06-01T20:20:20.138Z,24.80
2017-06-01T20:22:49.006Z,24.70
2017-06-01T20:25:17.864Z,24.60
2017-06-01T20:27:53.874Z,24.60
2017-06-01T20:30:22.875Z,24.60
2017-06-01T20:32:51.728Z,24.50
2017-06-01T20:35:20.637Z,24.40
2017-06-01T20:37:49.500Z,24.30
2017-06-01T20:40:18.372Z,24.30
2017-06-01T20:42:55.186Z,24.40
2017-06-01T20:45:24.086Z,24.40
2017-06-01T20:47:52.977Z,24.30
2017-06-01T20:50:21.847Z,24.40
2017-06-01T20:52:50.707Z,24.30
2017-06-01T20:55:19.579Z,24.30
2017-06-01T20:57:48.460Z,24.30
2017-06-01T21:00:19.083Z,24.30
2017-06-01T21:02:47.931Z,24.30
2017-06-01T21:05:16.793Z,24.30
2017-06-01T21:07:45.681Z,24.30
2017-06-01T21:10:14.541Z,24.30
2017-06-01T21:12:43.389Z,24.20
2017-06-01T21:15:12.285Z,24.20
2017-06-01T21:17:44.829Z,24.20
2017-06-01T21:20:13.699Z,24.20
2017-06-01T21:22:42.566Z,24.20
2017-06-01T21:25:11.462Z,24.20
2017-06-01T21:27:40.318Z,24.20
2017-06-01T21:30:09.200Z,24.10
2017-06-01T21:32:38.119Z,24.20
2017-06-01T21:35:06.962Z,24.10
2017-06-01T21:37:35.813Z,24.10
2017-06-01T21:40:04.708Z,24.10
2017-06-01T21:42:33.560Z,24.10
2017-06-01T21:45:02.451Z,24.10
2017-06-01T21:47:31.369Z,24.10
2017-06-01T21:50:00.202Z,24.10
2017-06-01T21:52:29.066Z,24.10
2017-06-01T21:54:58.062Z,24.10
2017-06-01T21:57:26.944Z,24.00
2017-06-01T21:59:55.808Z,24.00
2017-06-01T22:02:24.712Z,24.00
2017-06-01T22:04:53.555Z,24.00
2017-06-01T22:07:22.432Z,24.00
2017-06-01T22:09:51.318Z,23.90
2017-06-01T22:12:20.309Z,23.90
2017-06-01T22:14:49.161Z,23.90
2017-06-01T22:17:18.040Z,23.90
2017-06-01T22:19:46.937Z,23.90
2017-06-01T22:22:15.789Z,23.90
2017-06-01T22:24:44.653Z,23.90
2017-06-01T22:27:15.225Z,23.90
2017-06-01T22:29:44.086Z,23.90
2017-06-01T22:32:14.186Z,23.90
2017-06-01T22:34:43.107Z,23.80
2017-06-01T22:37:11.966Z,23.80
2017-06-01T22:39:40.800Z,23.80
2017-06-01T22:42:09.680Z,23.80
2017-06-01T22:44:38.532Z,23.80
2017-06-01T22:47:07.436Z,23.80
2017-06-01T22:49:36.292Z,23.80
2017-06-01T22:52:05.165Z,23.80
2017-06-01T22:54:37.639Z,23.80
2017-06-01T22:57:06.509Z,23.80
2017-06-01T22:59:35.398Z,23.80
2017-06-01T23:02:03.505Z,23.70
2017-06-01T23:04:32.362Z,23.70
2017-06-01T23:07:01.245Z,23.70
2017-06-01T23:09:30.113Z,23.70
2017-06-01T23:11:58.964Z,23.70
2017-06-01T23:14:28.000Z,23.60
2017-06-01T23:17:07.718Z,23.60
2017-06-01T23:19:36.645Z,23.50
2017-06-01T23:22:05.492Z,23.50
2017-06-01T23:24:34.352Z,23.50
2017-06-01T23:27:03.232Z,23.50
2017-06-01T23:29:32.093Z,23.50
2017-06-01T23:32:00.940Z,23.50
2017-06-01T23:34:29.847Z,23.50
2017-06-01T23:36:58.705Z,23.50
2017-06-01T23:39:27.570Z,23.40
2017-06-01T23:41:57.361Z,23.40
2017-06-01T23:44:26.212Z,23.40
2017-06-01T23:46:55.077Z,23.40
2017-06-01T23:49:23.955Z,23.40
2017-06-01T23:51:52.042Z,23.40
2017-06-01T23:54:21.750Z,23.40
2017-06-01T23:56:49.844Z,23.30
2017-06-01T23:59:18.706Z,23.30
